createdAt,value
2019-03-15T00:00:12.085Z,84.94
2019-03-15T00:01:12.067Z,84.74
2019-03-15T00:02:12.039Z,84.88
2019-03-15T00:03:12.075Z,84.16
2019-03-15T00:04:12.013Z,84.22
2019-03-15T00:05:12.034Z,84.88
2019-03-15T00:06:11.999Z,84.06
2019-03-15T00:07:11.982Z,84.12
2019-03-15T00:08:11.982Z,83.64
2019-03-15T00:09:11.983Z,84.88
2019-03-15T00:10:11.976Z,84.43
2019-03-15T00:11:11.937Z,84.43
2019-03-15T00:12:11.969Z,84.47
2019-03-15T00:13:12.425Z,84.88
2019-03-15T00:14:11.916Z,84.84
2019-03-15T00:15:11.898Z,84.47
2019-03-15T00:16:11.892Z,84.99
2019-03-15T00:17:11.921Z,84.88
2019-03-15T00:18:11.861Z,84.88
2019-03-15T00:19:12.684Z,84.57
2019-03-15T00:20:11.892Z,84.36
2019-03-15T00:21:11.858Z,84.47
2019-03-15T00:22:11.844Z,84.57
2019-03-15T00:23:11.844Z,84.47
2019-03-15T00:24:11.802Z,83.95
2019-03-15T00:25:11.788Z,84.47
2019-03-15T00:26:11.810Z,84.36
2019-03-15T00:27:11.764Z,84.99
2019-03-15T00:28:11.765Z,84.88
2019-03-15T00:29:11.801Z,84.16
2019-03-15T00:30:11.731Z,84.27
2019-03-15T00:31:11.718Z,83.95
2019-03-15T00:32:11.779Z,84.88
2019-03-15T00:33:11.712Z,84.16
2019-03-15T00:34:11.691Z,84.16
2019-03-15T00:35:11.838Z,84.47
2019-03-15T00:36:11.661Z,84.27
2019-03-15T00:37:11.650Z,84.47
2019-03-15T00:38:11.679Z,84.16
2019-03-15T00:39:11.635Z,84.06
2019-03-15T00:40:11.667Z,84.06
2019-03-15T00:41:11.633Z,84.57
2019-03-15T00:42:11.598Z,84.57
2019-03-15T00:43:11.706Z,84.92
2019-03-15T00:44:11.571Z,84.20
2019-03-15T00:45:11.583Z,84.81
2019-03-15T00:46:11.593Z,84.41
2019-03-15T00:47:11.549Z,84.51
2019-03-15T00:48:11.569Z,84.51
2019-03-15T00:49:11.525Z,84.20
2019-03-15T00:50:11.506Z,84.51
2019-03-15T00:51:11.514Z,84.20
2019-03-15T00:52:11.531Z,84.72
2019-03-15T00:53:11.484Z,84.72
2019-03-15T00:54:11.493Z,84.41
2019-03-15T00:55:11.464Z,84.61
2019-03-15T00:56:11.761Z,84.41
2019-03-15T00:57:11.490Z,85.02
2019-03-15T00:58:11.419Z,85.44
2019-03-15T00:59:11.418Z,85.13
2019-03-15T01:00:11.424Z,84.92
2019-03-15T01:01:11.409Z,85.02
2019-03-15T01:02:11.491Z,84.81
2019-03-15T01:03:11.369Z,84.81
2019-03-15T01:04:11.399Z,84.81
2019-03-15T01:05:11.371Z,85.13
2019-03-15T01:06:11.347Z,85.23
2019-03-15T01:07:11.373Z,85.68
2019-03-15T01:08:11.542Z,85.54
2019-03-15T01:09:11.322Z,85.54
2019-03-15T01:10:11.295Z,85.58
2019-03-15T01:11:11.316Z,85.47
2019-03-15T01:12:11.270Z,85.37
2019-03-15T01:13:11.275Z,85.37
2019-03-15T01:14:11.263Z,85.78
2019-03-15T01:15:11.237Z,85.68
2019-03-15T01:16:11.335Z,85.58
2019-03-15T01:17:11.211Z,85.47
2019-03-15T01:18:11.208Z,85.68
2019-03-15T01:19:11.205Z,85.33
2019-03-15T01:20:11.189Z,85.58
2019-03-15T01:21:11.211Z,85.64
2019-03-15T01:22:11.159Z,85.58
2019-03-15T01:23:11.143Z,85.27
2019-03-15T01:24:11.160Z,85.47
2019-03-15T01:25:11.217Z,85.37
2019-03-15T01:26:11.139Z,85.37
2019-03-15T01:27:11.098Z,84.75
2019-03-15T01:28:11.092Z,85.06
2019-03-15T01:29:11.178Z,85.37
2019-03-15T01:30:11.097Z,85.06
2019-03-15T01:31:11.060Z,85.06
2019-03-15T01:32:11.147Z,84.96
2019-03-15T01:33:11.071Z,85.06
2019-03-15T01:34:11.028Z,84.75
2019-03-15T01:35:11.016Z,84.86
2019-03-15T01:36:11.116Z,84.65
2019-03-15T01:37:11.060Z,84.92
2019-03-15T01:38:10.983Z,85.13
2019-03-15T01:39:10.977Z,85.06
2019-03-15T01:40:11.026Z,85.06
2019-03-15T01:41:10.949Z,85.17
2019-03-15T01:42:10.976Z,84.96
2019-03-15T01:43:10.929Z,84.96
2019-03-15T01:44:10.929Z,85.13
2019-03-15T01:45:10.960Z,85.23
2019-03-15T01:46:10.898Z,84.41
2019-03-15T01:47:10.929Z,84.51
2019-03-15T01:48:10.913Z,84.92
2019-03-15T01:49:10.872Z,84.20
2019-03-15T01:50:10.892Z,84.81
2019-03-15T01:51:10.905Z,84.92
2019-03-15T01:52:10.837Z,83.68
2019-03-15T01:53:10.812Z,84.47
2019-03-15T01:54:10.841Z,84.30
2019-03-15T01:55:10.798Z,84.20
2019-03-15T01:56:10.924Z,84.20
2019-03-15T01:57:10.781Z,84.30
2019-03-15T01:58:10.771Z,84.09
2019-03-15T01:59:10.826Z,83.48
2019-03-15T02:00:10.749Z,84.09
2019-03-15T02:01:10.792Z,83.85
2019-03-15T02:02:10.717Z,83.85
2019-03-15T02:03:10.706Z,83.23
2019-03-15T02:04:10.734Z,83.23
2019-03-15T02:05:10.765Z,83.85
2019-03-15T02:06:10.709Z,83.85
2019-03-15T02:07:10.725Z,83.33
2019-03-15T02:08:10.670Z,83.44
2019-03-15T02:09:10.636Z,83.13
2019-03-15T02:10:11.083Z,83.33
2019-03-15T02:11:10.624Z,83.17
2019-03-15T02:12:10.610Z,83.44
2019-03-15T02:13:10.621Z,82.82
2019-03-15T02:14:10.677Z,82.92
2019-03-15T02:15:10.610Z,82.92
2019-03-15T02:16:10.602Z,83.64
2019-03-15T02:17:10.616Z,83.64
2019-03-15T02:18:10.545Z,83.03
2019-03-15T02:19:10.629Z,83.03
2019-03-15T02:20:10.556Z,83.23
2019-03-15T02:21:10.514Z,83.03
2019-03-15T02:22:10.526Z,83.75
2019-03-15T02:23:10.487Z,83.33
2019-03-15T02:24:10.485Z,83.54
2019-03-15T02:25:10.497Z,83.03
2019-03-15T02:26:10.506Z,83.13
2019-03-15T02:27:10.466Z,83.03
2019-03-15T02:28:10.479Z,83.13
2019-03-15T02:29:10.421Z,83.13
2019-03-15T02:30:10.435Z,83.23
2019-03-15T02:31:10.504Z,83.03
2019-03-15T02:32:10.409Z,82.82
2019-03-15T02:33:10.399Z,82.82
2019-03-15T02:34:10.405Z,83.23
2019-03-15T02:35:10.367Z,83.64
2019-03-15T02:36:10.389Z,83.23
2019-03-15T02:37:10.378Z,83.03
2019-03-15T02:38:10.342Z,83.23
2019-03-15T02:39:10.380Z,83.54
2019-03-15T02:40:10.377Z,82.82
2019-03-15T02:41:10.296Z,83.33
2019-03-15T02:42:10.422Z,82.71
2019-03-15T02:43:10.295Z,82.92
2019-03-15T02:44:10.306Z,82.92
2019-03-15T02:45:10.287Z,83.13
2019-03-15T02:46:10.270Z,82.82
2019-03-15T02:47:10.219Z,83.64
2019-03-15T02:48:10.226Z,83.75
2019-03-15T02:49:10.282Z,83.13
2019-03-15T02:50:10.210Z,82.61
2019-03-15T02:51:10.190Z,82.61
2019-03-15T02:52:10.174Z,82.82
2019-03-15T02:53:10.187Z,82.71
2019-03-15T02:54:10.150Z,82.92
2019-03-15T02:55:10.154Z,83.23
2019-03-15T02:56:10.155Z,83.64
2019-03-15T02:57:10.122Z,83.13
2019-03-15T02:58:10.144Z,83.13
2019-03-15T02:59:10.112Z,82.92
2019-03-15T03:00:10.093Z,82.92
2019-03-15T03:01:10.129Z,83.33
2019-03-15T03:02:10.115Z,82.82
2019-03-15T03:03:10.074Z,83.03
2019-03-15T03:04:10.054Z,82.40
2019-03-15T03:05:10.061Z,83.03
2019-03-15T03:06:10.035Z,82.92
2019-03-15T03:07:10.030Z,83.13
2019-03-15T03:08:10.017Z,83.03
2019-03-15T03:09:10.038Z,83.13
2019-03-15T03:10:10.018Z,82.82
2019-03-15T03:11:10.001Z,83.03
2019-03-15T03:12:09.955Z,83.23
2019-03-15T03:13:10.749Z,82.92
2019-03-15T03:14:09.963Z,83.03
2019-03-15T03:15:09.923Z,83.03
2019-03-15T03:16:09.948Z,82.61
2019-03-15T03:17:09.897Z,82.61
2019-03-15T03:18:09.986Z,82.20
2019-03-15T03:19:09.891Z,82.51
2019-03-15T03:20:09.869Z,83.33
2019-03-15T03:21:09.850Z,82.71
2019-03-15T03:22:09.840Z,82.92
2019-03-15T03:23:09.880Z,82.92
2019-03-15T03:24:09.839Z,83.23
2019-03-15T03:25:09.876Z,83.33
2019-03-15T03:26:09.795Z,82.30
2019-03-15T03:27:09.827Z,82.30
2019-03-15T03:28:09.790Z,82.20
2019-03-15T03:29:09.784Z,82.40
2019-03-15T03:30:09.857Z,83.23
2019-03-15T03:31:09.744Z,83.03
2019-03-15T03:32:09.754Z,82.71
2019-03-15T03:33:12.338Z,82.30
2019-03-15T03:34:11.713Z,82.30
2019-03-15T03:35:10.704Z,82.20
2019-03-15T03:36:09.764Z,83.23
2019-03-15T03:37:09.738Z,82.61
2019-03-15T03:38:09.701Z,83.06
2019-03-15T03:39:09.661Z,83.13
2019-03-15T03:40:09.765Z,82.82
2019-03-15T03:41:09.634Z,83.06
2019-03-15T03:42:09.626Z,83.78
2019-03-15T03:43:09.642Z,83.54
2019-03-15T03:44:09.602Z,83.03
2019-03-15T03:45:09.622Z,83.75
2019-03-15T03:46:09.595Z,83.27
2019-03-15T03:47:09.669Z,83.13
2019-03-15T03:48:09.585Z,83.17
2019-03-15T03:49:09.563Z,83.06
2019-03-15T03:50:09.605Z,83.37
2019-03-15T03:51:09.536Z,83.27
2019-03-15T03:52:09.545Z,83.13
2019-03-15T03:53:09.605Z,83.27
2019-03-15T03:54:09.493Z,83.13
2019-03-15T03:55:09.485Z,83.17
2019-03-15T03:56:09.518Z,83.37
2019-03-15T03:57:10.490Z,83.37
2019-03-15T03:58:09.470Z,83.58
2019-03-15T03:59:09.447Z,83.37
2019-03-15T04:00:09.477Z,83.27
2019-03-15T04:01:09.437Z,83.27
2019-03-15T04:02:09.504Z,83.37
2019-03-15T04:03:09.397Z,83.27
2019-03-15T04:04:09.442Z,83.27
2019-03-15T04:05:09.373Z,83.58
2019-03-15T04:06:09.463Z,83.68
2019-03-15T04:07:09.365Z,83.27
2019-03-15T04:08:09.347Z,83.27
2019-03-15T04:09:09.381Z,83.48
2019-03-15T04:10:09.333Z,83.89
2019-03-15T04:11:09.308Z,84.30
2019-03-15T04:12:09.317Z,84.20
2019-03-15T04:13:09.282Z,84.09
2019-03-15T04:14:09.335Z,83.89
2019-03-15T04:15:09.301Z,83.89
2019-03-15T04:16:09.266Z,84.09
2019-03-15T04:17:09.244Z,84.09
2019-03-15T04:18:09.226Z,83.99
2019-03-15T04:19:09.217Z,83.99
2019-03-15T04:20:09.224Z,83.99
2019-03-15T04:21:09.320Z,83.78
2019-03-15T04:22:09.186Z,83.68
2019-03-15T04:23:09.178Z,84.20
2019-03-15T04:24:09.196Z,84.20
2019-03-15T04:25:09.162Z,84.20
2019-03-15T04:26:09.162Z,84.20
2019-03-15T04:27:09.142Z,83.99
2019-03-15T04:28:09.160Z,84.09
2019-03-15T04:29:09.108Z,83.85
2019-03-15T04:30:09.217Z,83.75
2019-03-15T04:31:09.110Z,83.78
2019-03-15T04:32:09.088Z,84.16
2019-03-15T04:33:09.102Z,83.89
2019-03-15T04:34:09.053Z,83.85
2019-03-15T04:35:09.042Z,83.99
2019-03-15T04:36:09.071Z,84.30
2019-03-15T04:37:09.486Z,84.92
2019-03-15T04:38:09.012Z,85.13
2019-03-15T04:39:09.003Z,84.20
2019-03-15T04:40:09.129Z,84.41
2019-03-15T04:41:08.974Z,84.81
2019-03-15T04:42:08.985Z,84.41
2019-03-15T04:43:08.964Z,84.72
2019-03-15T04:44:08.951Z,84.81
2019-03-15T04:45:08.933Z,84.72
2019-03-15T04:46:08.925Z,84.92
2019-03-15T04:47:08.984Z,85.30
2019-03-15T04:48:08.909Z,85.19
2019-03-15T04:49:08.963Z,85.19
2019-03-15T04:50:08.876Z,85.09
2019-03-15T04:51:08.865Z,84.78
2019-03-15T04:52:08.913Z,85.30
2019-03-15T04:53:08.847Z,84.78
2019-03-15T04:54:08.832Z,84.27
2019-03-15T04:55:09.001Z,84.27
2019-03-15T04:56:08.809Z,84.47
2019-03-15T04:57:08.801Z,84.88
2019-03-15T04:58:08.847Z,83.95
2019-03-15T04:59:08.784Z,84.88
2019-03-15T05:00:08.778Z,84.57
2019-03-15T05:01:08.794Z,84.99
2019-03-15T05:02:08.787Z,84.47
2019-03-15T05:03:08.754Z,84.64
2019-03-15T05:04:08.729Z,84.99
2019-03-15T05:05:08.723Z,85.19
2019-03-15T05:06:08.775Z,84.78
2019-03-15T05:07:08.689Z,84.78
2019-03-15T05:08:08.757Z,84.99
2019-03-15T05:09:08.672Z,84.67
2019-03-15T05:10:08.708Z,85.30
2019-03-15T05:11:08.666Z,85.50
2019-03-15T05:12:08.645Z,85.36
2019-03-15T05:13:08.618Z,85.57
2019-03-15T05:14:08.617Z,85.09
2019-03-15T05:15:08.637Z,85.60
2019-03-15T05:16:08.588Z,86.02
2019-03-15T05:17:08.601Z,85.91
2019-03-15T05:18:08.564Z,85.91
2019-03-15T05:19:08.555Z,85.60
2019-03-15T05:20:08.565Z,85.60
2019-03-15T05:21:08.531Z,85.71
2019-03-15T05:22:08.522Z,86.12
2019-03-15T05:23:08.526Z,86.12
2019-03-15T05:24:08.506Z,86.32
2019-03-15T05:25:08.500Z,86.22
2019-03-15T05:26:08.514Z,86.74
2019-03-15T05:27:08.470Z,86.43
2019-03-15T05:28:08.477Z,86.43
2019-03-15T05:29:08.466Z,86.53
2019-03-15T05:30:08.445Z,86.22
2019-03-15T05:31:08.423Z,87.05
2019-03-15T05:32:08.413Z,87.35
2019-03-15T05:33:08.451Z,87.05
2019-03-15T05:34:08.389Z,87.46
2019-03-15T05:35:08.379Z,87.56
2019-03-15T05:36:08.382Z,87.66
2019-03-15T05:37:08.380Z,87.56
2019-03-15T05:38:08.432Z,87.77
2019-03-15T05:39:08.366Z,87.66
2019-03-15T05:40:08.326Z,87.87
2019-03-15T05:41:08.312Z,87.56
2019-03-15T05:42:08.303Z,87.66
2019-03-15T05:43:08.341Z,87.77
2019-03-15T05:44:08.283Z,87.46
2019-03-15T05:45:08.315Z,87.77
2019-03-15T05:46:08.261Z,87.87
2019-03-15T05:47:08.246Z,88.29
2019-03-15T05:48:08.237Z,88.18
2019-03-15T05:49:08.238Z,87.77
2019-03-15T05:50:08.215Z,87.87
2019-03-15T05:51:08.226Z,87.77
2019-03-15T05:52:08.192Z,87.98
2019-03-15T05:53:08.181Z,87.77
2019-03-15T05:54:08.186Z,87.46
2019-03-15T05:55:08.174Z,87.56
2019-03-15T05:56:08.150Z,87.98
2019-03-15T05:57:08.192Z,87.87
2019-03-15T05:58:08.125Z,87.66
2019-03-15T05:59:08.113Z,87.26
2019-03-15T06:00:08.129Z,87.05
2019-03-15T06:01:08.096Z,87.77
2019-03-15T06:02:08.083Z,87.77
2019-03-15T06:03:08.117Z,87.35
2019-03-15T06:04:08.058Z,87.66
2019-03-15T06:05:08.943Z,87.46
2019-03-15T06:06:08.048Z,87.26
2019-03-15T06:07:08.025Z,87.35
2019-03-15T06:08:08.017Z,87.56
2019-03-15T06:09:08.052Z,87.66
2019-03-15T06:10:07.994Z,87.56
2019-03-15T06:11:07.993Z,87.26
2019-03-15T06:12:07.986Z,87.05
2019-03-15T06:13:07.963Z,86.32
2019-03-15T06:14:07.948Z,86.74
2019-03-15T06:15:08.021Z,87.26
2019-03-15T06:16:07.934Z,87.05
2019-03-15T06:17:07.916Z,87.15
2019-03-15T06:18:07.920Z,86.74
2019-03-15T06:19:07.894Z,86.29
2019-03-15T06:20:07.919Z,86.32
2019-03-15T06:21:07.897Z,86.60
2019-03-15T06:22:07.868Z,86.39
2019-03-15T06:23:07.854Z,86.80
2019-03-15T06:24:07.845Z,86.22
2019-03-15T06:25:07.832Z,86.53
2019-03-15T06:26:07.831Z,86.60
2019-03-15T06:27:07.854Z,86.22
2019-03-15T06:28:07.806Z,86.08
2019-03-15T06:29:07.790Z,86.43
2019-03-15T06:30:07.774Z,86.80
2019-03-15T06:31:07.778Z,86.70
2019-03-15T06:32:07.764Z,86.39
2019-03-15T06:33:07.765Z,86.53
2019-03-15T06:34:07.729Z,86.90
2019-03-15T06:35:07.732Z,86.29
2019-03-15T06:36:07.714Z,86.74
2019-03-15T06:37:07.698Z,86.90
2019-03-15T06:38:07.687Z,86.29
2019-03-15T06:39:08.426Z,86.08
2019-03-15T06:40:07.663Z,86.02
2019-03-15T06:41:07.673Z,86.70
2019-03-15T06:42:07.647Z,86.60
2019-03-15T06:43:07.632Z,86.70
2019-03-15T06:44:07.619Z,85.97
2019-03-15T06:45:07.628Z,86.53
2019-03-15T06:46:07.610Z,86.60
2019-03-15T06:47:07.590Z,86.53
2019-03-15T06:48:07.580Z,87.01
2019-03-15T06:49:07.565Z,87.26
2019-03-15T06:50:07.568Z,86.84
2019-03-15T06:51:09.270Z,86.94
2019-03-15T06:52:07.547Z,87.01
2019-03-15T06:53:07.520Z,87.42
2019-03-15T06:54:11.751Z,87.01
2019-03-15T06:55:07.518Z,87.32
2019-03-15T06:56:07.491Z,87.21
2019-03-15T06:57:07.518Z,86.90
2019-03-15T06:58:07.464Z,86.90
2019-03-15T06:59:07.457Z,87.42
2019-03-15T07:00:07.444Z,87.32
2019-03-15T07:01:07.451Z,87.66
2019-03-15T07:02:07.420Z,87.35
2019-03-15T07:03:07.445Z,88.08
2019-03-15T07:04:07.424Z,88.08
2019-03-15T07:05:07.392Z,87.98
2019-03-15T07:06:07.378Z,88.29
2019-03-15T07:07:07.369Z,88.24
2019-03-15T07:08:07.360Z,88.45
2019-03-15T07:09:07.564Z,88.59
2019-03-15T07:10:07.344Z,88.08
2019-03-15T07:11:07.344Z,89.11
2019-03-15T07:12:09.745Z,89.32
2019-03-15T07:13:07.304Z,89.22
2019-03-15T07:14:07.294Z,89.28
2019-03-15T07:15:07.311Z,89.32
2019-03-15T07:16:07.279Z,89.32
2019-03-15T07:17:07.273Z,89.94
2019-03-15T07:18:07.995Z,89.83
2019-03-15T07:19:07.238Z,89.52
2019-03-15T07:20:07.230Z,90.45
2019-03-15T07:21:07.252Z,90.14
2019-03-15T07:22:07.213Z,90.04
2019-03-15T07:23:07.193Z,90.04
2019-03-15T07:24:07.180Z,91.28
2019-03-15T07:25:07.171Z,90.97
2019-03-15T07:26:07.161Z,90.86
2019-03-15T07:27:12.927Z,90.97
2019-03-15T07:28:08.138Z,90.86
2019-03-15T07:29:07.126Z,91.58
2019-03-15T07:30:07.118Z,91.17
2019-03-15T07:31:07.108Z,91.07
2019-03-15T07:32:07.117Z,91.79
2019-03-15T07:33:07.081Z,92.31
2019-03-15T07:34:07.094Z,92.41
2019-03-15T07:35:07.460Z,92.51
2019-03-15T07:36:07.050Z,92.72
2019-03-15T07:37:07.038Z,92.72
2019-03-15T07:38:07.060Z,92.55
2019-03-15T07:39:07.013Z,92.55
2019-03-15T07:40:07.008Z,93.34
2019-03-15T07:41:06.999Z,93.34
2019-03-15T07:42:07.142Z,93.38
2019-03-15T07:43:07.017Z,93.38
2019-03-15T07:44:06.973Z,93.49
2019-03-15T07:45:06.955Z,93.34
2019-03-15T07:46:06.942Z,93.18
2019-03-15T07:47:06.927Z,93.44
2019-03-15T07:48:06.918Z,93.44
2019-03-15T07:49:06.966Z,93.24
2019-03-15T07:50:06.892Z,93.44
2019-03-15T07:51:06.882Z,93.79
2019-03-15T07:52:06.871Z,93.24
2019-03-15T07:53:06.875Z,93.54
2019-03-15T07:54:06.851Z,93.54
2019-03-15T07:55:06.904Z,93.34
2019-03-15T07:56:06.827Z,93.34
2019-03-15T07:57:06.822Z,93.24
2019-03-15T07:58:07.486Z,93.44
2019-03-15T07:59:06.796Z,93.75
2019-03-15T08:00:06.787Z,93.44
2019-03-15T08:01:06.849Z,93.44
2019-03-15T08:02:06.760Z,94.37
2019-03-15T08:03:06.752Z,93.85
2019-03-15T08:04:16.784Z,94.37
2019-03-15T08:05:07.726Z,94.68
2019-03-15T08:06:06.729Z,94.27
2019-03-15T08:07:06.719Z,94.57
2019-03-15T08:08:06.747Z,94.17
2019-03-15T08:09:06.687Z,94.68
2019-03-15T08:10:06.706Z,94.17
2019-03-15T08:11:06.664Z,94.06
2019-03-15T08:12:06.666Z,94.47
2019-03-15T08:13:06.639Z,94.06
2019-03-15T08:14:06.674Z,94.47
2019-03-15T08:15:06.625Z,93.96
2019-03-15T08:16:06.634Z,94.17
2019-03-15T08:17:06.597Z,94.47
2019-03-15T08:18:06.611Z,94.17
2019-03-15T08:19:06.584Z,94.27
2019-03-15T08:20:06.563Z,94.27
2019-03-15T08:21:06.614Z,94.47
2019-03-15T08:22:06.543Z,94.17
2019-03-15T08:23:08.633Z,94.17
2019-03-15T08:24:06.534Z,94.37
2019-03-15T08:25:06.507Z,94.17
2019-03-15T08:26:06.519Z,94.57
2019-03-15T08:27:06.488Z,94.57
2019-03-15T08:28:06.536Z,94.27
2019-03-15T08:29:09.473Z,95.09
2019-03-15T08:30:06.452Z,95.09
2019-03-15T08:31:06.443Z,95.30
2019-03-15T08:32:06.447Z,95.30
2019-03-15T08:33:10.458Z,95.61
2019-03-15T08:34:06.431Z,95.81
2019-03-15T08:35:06.400Z,96.02
2019-03-15T08:36:06.388Z,96.02
2019-03-15T08:37:06.374Z,96.02
2019-03-15T08:38:06.380Z,96.02
2019-03-15T08:39:06.355Z,96.33
2019-03-15T08:40:06.342Z,96.64
2019-03-15T08:41:06.346Z,96.95
2019-03-15T08:42:06.319Z,96.89
2019-03-15T08:43:06.310Z,96.84
2019-03-15T08:44:06.316Z,96.99
2019-03-15T08:45:06.289Z,97.16
2019-03-15T08:46:06.277Z,97.05
2019-03-15T08:47:06.267Z,97.36
2019-03-15T08:48:06.293Z,97.16
2019-03-15T08:49:06.246Z,97.36
2019-03-15T08:50:06.253Z,97.98
2019-03-15T08:51:06.223Z,97.98
2019-03-15T08:52:06.210Z,97.88
2019-03-15T08:53:06.202Z,97.88
2019-03-15T08:54:06.215Z,97.88
2019-03-15T08:55:06.192Z,97.98
2019-03-15T08:56:06.170Z,98.39
2019-03-15T08:57:06.156Z,97.73
2019-03-15T08:58:13.910Z,97.88
2019-03-15T08:59:07.132Z,98.29
2019-03-15T09:00:06.147Z,98.29
2019-03-15T09:01:06.127Z,98.50
2019-03-15T09:02:06.102Z,98.50
2019-03-15T09:03:06.090Z,98.39
2019-03-15T09:04:06.079Z,98.39
2019-03-15T09:05:06.069Z,98.80
2019-03-15T09:06:06.105Z,98.55
2019-03-15T09:07:06.058Z,98.76
2019-03-15T09:08:06.066Z,98.66
2019-03-15T09:09:06.024Z,98.29
2019-03-15T09:10:06.012Z,97.94
2019-03-15T09:11:06.002Z,98.55
2019-03-15T09:12:06.035Z,97.83
2019-03-15T09:13:06.001Z,97.83
2019-03-15T09:14:05.986Z,98.45
2019-03-15T09:15:05.958Z,97.83
2019-03-15T09:16:05.949Z,97.94
2019-03-15T09:17:05.935Z,97.94
2019-03-15T09:18:05.972Z,98.55
2019-03-15T09:19:05.917Z,98.14
2019-03-15T09:20:05.919Z,98.03
2019-03-15T09:21:05.893Z,98.45
2019-03-15T09:22:05.885Z,98.24
2019-03-15T09:23:05.870Z,97.99
2019-03-15T09:24:05.885Z,98.10
2019-03-15T09:25:18.552Z,98.41
2019-03-15T09:26:10.196Z,98.41
2019-03-15T09:27:05.827Z,98.57
2019-03-15T09:28:05.818Z,98.50
2019-03-15T09:29:05.818Z,98.46
2019-03-15T09:30:05.835Z,98.61
2019-03-15T09:31:07.522Z,98.61
2019-03-15T09:32:09.149Z,98.25
2019-03-15T09:33:05.773Z,98.25
2019-03-15T09:34:05.755Z,98.57
2019-03-15T09:35:05.743Z,98.36
2019-03-15T09:36:05.795Z,98.21
2019-03-15T09:37:05.719Z,98.11
2019-03-15T09:38:05.726Z,97.90
2019-03-15T09:39:05.695Z,97.49
2019-03-15T09:40:05.683Z,97.49
2019-03-15T09:41:05.672Z,97.69
2019-03-15T09:42:05.706Z,97.90
2019-03-15T09:43:05.674Z,98.27
2019-03-15T09:44:05.639Z,98.47
2019-03-15T09:45:05.628Z,98.16
2019-03-15T09:46:05.642Z,97.65
2019-03-15T09:47:05.608Z,97.96
2019-03-15T09:48:05.594Z,98.16
2019-03-15T09:49:05.624Z,98.68
2019-03-15T09:50:05.577Z,98.58
2019-03-15T09:51:05.565Z,98.88
2019-03-15T09:52:05.564Z,98.88
2019-03-15T09:53:06.107Z,98.79
2019-03-15T09:54:05.528Z,98.79
2019-03-15T09:55:05.553Z,98.79
2019-03-15T09:56:05.507Z,98.79
2019-03-15T09:57:05.500Z,98.84
2019-03-15T09:58:05.498Z,98.74
2019-03-15T09:59:05.475Z,99.15
2019-03-15T10:00:05.463Z,99.05
2019-03-15T10:01:05.755Z,98.84
2019-03-15T10:02:07.833Z,99.56
2019-03-15T10:03:05.433Z,99.46
2019-03-15T10:04:05.453Z,98.90
2019-03-15T10:05:10.679Z,99.05
2019-03-15T10:06:14.828Z,99.15
2019-03-15T10:07:06.406Z,99.05
2019-03-15T10:08:05.415Z,99.21
2019-03-15T10:09:05.364Z,99.31
2019-03-15T10:10:13.540Z,99.51
2019-03-15T10:11:06.342Z,99.21
2019-03-15T10:12:05.331Z,99.21
2019-03-15T10:13:06.462Z,99.41
2019-03-15T10:14:05.345Z,99.31
2019-03-15T10:15:07.769Z,99.72
2019-03-15T10:16:05.300Z,99.62
2019-03-15T10:17:05.275Z,99.21
2019-03-15T10:18:05.274Z,99.72
2019-03-15T10:19:05.252Z,99.99
2019-03-15T10:20:05.261Z,99.99
2019-03-15T10:21:05.240Z,99.99
2019-03-15T10:22:05.238Z,99.88
2019-03-15T10:23:06.450Z,99.98
2019-03-15T10:24:05.194Z,99.99
2019-03-15T10:25:05.190Z,99.77
2019-03-15T10:26:05.187Z,99.88
2019-03-15T10:27:05.166Z,99.77
2019-03-15T10:28:05.167Z,99.99
2019-03-15T10:29:14.709Z,99.88
2019-03-15T10:30:06.132Z,99.88
2019-03-15T10:31:05.122Z,99.93
2019-03-15T10:32:05.145Z,99.99
2019-03-15T10:33:05.111Z,99.83
2019-03-15T10:34:05.889Z,99.89
2019-03-15T10:35:05.228Z,99.68
2019-03-15T10:36:05.071Z,99.93
2019-03-15T10:37:06.280Z,99.99
2019-03-15T10:38:05.115Z,99.99
2019-03-15T10:39:05.029Z,99.89
2019-03-15T10:40:05.022Z,99.95
2019-03-15T10:41:05.009Z,99.95
2019-03-15T10:42:04.999Z,99.99
2019-03-15T10:43:04.995Z,99.95
2019-03-15T10:44:05.035Z,99.95
2019-03-15T10:45:04.983Z,99.95
2019-03-15T10:46:06.257Z,99.63
2019-03-15T10:47:04.945Z,99.84
2019-03-15T10:48:07.947Z,99.90
2019-03-15T10:49:04.920Z,99.99
2019-03-15T10:50:04.907Z,99.79
2019-03-15T10:51:04.950Z,99.99
2019-03-15T10:52:04.888Z,99.90
2019-03-15T10:53:04.879Z,99.65
2019-03-15T10:54:04.867Z,99.95
2019-03-15T10:55:04.860Z,99.75
2019-03-15T10:56:04.845Z,99.50
2019-03-15T10:57:04.846Z,99.91
2019-03-15T10:58:04.851Z,99.40
2019-03-15T10:59:04.816Z,99.40
2019-03-15T11:00:04.797Z,98.94
2019-03-15T11:01:04.797Z,98.94
2019-03-15T11:02:04.793Z,98.63
2019-03-15T11:03:04.769Z,98.69
2019-03-15T11:04:04.790Z,98.90
2019-03-15T11:05:04.754Z,98.28
2019-03-15T11:06:04.736Z,98.28
2019-03-15T11:07:04.723Z,98.18
2019-03-15T11:08:04.726Z,98.49
2019-03-15T11:09:04.714Z,98.54
2019-03-15T11:10:04.726Z,98.18
2019-03-15T11:11:04.682Z,97.62
2019-03-15T11:12:04.669Z,97.21
2019-03-15T11:13:04.673Z,97.92
2019-03-15T11:14:04.654Z,97.92
2019-03-15T11:15:04.665Z,97.00
2019-03-15T11:16:04.635Z,97.31
2019-03-15T11:17:04.614Z,96.70
2019-03-15T11:18:04.602Z,97.47
2019-03-15T11:19:04.602Z,97.41
2019-03-15T11:20:04.579Z,96.14
2019-03-15T11:21:04.626Z,96.04
2019-03-15T11:22:04.559Z,96.14
2019-03-15T11:23:04.547Z,96.45
2019-03-15T11:24:04.544Z,96.25
2019-03-15T11:25:04.531Z,96.04
2019-03-15T11:26:13.443Z,96.04
2019-03-15T11:27:05.545Z,95.79
2019-03-15T11:28:04.493Z,95.59
2019-03-15T11:29:04.480Z,96.20
2019-03-15T11:30:04.470Z,95.18
2019-03-15T11:31:04.463Z,95.89
2019-03-15T11:32:04.463Z,95.13
2019-03-15T11:33:04.490Z,95.13
2019-03-15T11:34:04.427Z,95.03
2019-03-15T11:35:04.418Z,94.52
2019-03-15T11:36:04.402Z,94.82
2019-03-15T11:37:04.394Z,93.66
2019-03-15T11:38:04.385Z,93.55
2019-03-15T11:39:04.423Z,93.25
2019-03-15T11:40:04.362Z,93.25
2019-03-15T11:41:04.349Z,92.69
2019-03-15T11:42:04.338Z,92.39
2019-03-15T11:43:04.344Z,92.19
2019-03-15T11:44:04.332Z,92.35
2019-03-15T11:45:04.351Z,91.43
2019-03-15T11:46:04.294Z,91.74
2019-03-15T11:47:04.294Z,91.63
2019-03-15T11:48:04.707Z,91.69
2019-03-15T11:49:04.289Z,91.59
2019-03-15T11:50:04.258Z,91.39
2019-03-15T11:51:04.321Z,90.77
2019-03-15T11:52:04.230Z,90.57
2019-03-15T11:53:04.219Z,90.67
2019-03-15T11:54:04.204Z,90.16
2019-03-15T11:55:04.208Z,90.26
2019-03-15T11:56:04.183Z,90.06
2019-03-15T11:57:04.237Z,89.96
2019-03-15T11:58:04.161Z,90.06
2019-03-15T11:59:04.155Z,90.10
2019-03-15T12:00:04.142Z,90.10
2019-03-15T12:01:04.140Z,90.41
2019-03-15T12:02:04.584Z,89.25
2019-03-15T12:03:04.145Z,90.41
2019-03-15T12:04:04.096Z,90.61
2019-03-15T12:05:04.084Z,90.81
2019-03-15T12:06:04.079Z,90.81
2019-03-15T12:07:04.082Z,90.71
2019-03-15T12:08:04.055Z,90.41
2019-03-15T12:09:04.041Z,90.14
2019-03-15T12:10:04.072Z,90.75
2019-03-15T12:11:04.035Z,90.51
2019-03-15T12:12:04.009Z,90.35
2019-03-15T12:13:04.016Z,90.75
2019-03-15T12:14:03.987Z,90.35
2019-03-15T12:15:03.976Z,91.27
2019-03-15T12:16:03.966Z,91.37
2019-03-15T12:17:03.999Z,91.98
2019-03-15T12:18:03.953Z,91.88
2019-03-15T12:19:03.951Z,91.72
2019-03-15T12:20:03.925Z,92.43
2019-03-15T12:21:03.933Z,92.80
2019-03-15T12:22:06.484Z,93.35
2019-03-15T12:23:03.888Z,93.96
2019-03-15T12:24:03.914Z,94.68
2019-03-15T12:25:03.871Z,94.42
2019-03-15T12:26:03.853Z,95.54
2019-03-15T12:27:03.859Z,95.13
2019-03-15T12:28:03.833Z,95.54
2019-03-15T12:29:03.823Z,96.05
2019-03-15T12:30:03.884Z,96.05
2019-03-15T12:31:03.800Z,95.85
2019-03-15T12:32:03.793Z,95.95
2019-03-15T12:33:03.781Z,96.10
2019-03-15T12:34:03.776Z,96.10
2019-03-15T12:35:03.766Z,96.10
2019-03-15T12:36:03.811Z,95.89
2019-03-15T12:37:03.732Z,96.25
2019-03-15T12:38:03.722Z,97.02
2019-03-15T12:39:03.715Z,97.12
2019-03-15T12:40:03.714Z,97.06
2019-03-15T12:41:03.703Z,97.78
2019-03-15T12:42:03.690Z,96.75
2019-03-15T12:43:03.733Z,97.47
2019-03-15T12:44:03.660Z,97.16
2019-03-15T12:45:03.647Z,97.47
2019-03-15T12:46:03.637Z,96.55
2019-03-15T12:47:05.995Z,96.96
2019-03-15T12:48:03.608Z,97.06
2019-03-15T12:49:03.668Z,96.81
2019-03-15T12:50:03.593Z,97.37
2019-03-15T12:51:03.580Z,96.92
2019-03-15T12:52:03.568Z,96.92